createdAt,value
2022-08-20T00:05:01.337Z,67.63
2022-08-20T00:11:04.094Z,81.30
2022-08-20T00:17:05.856Z,75.13
2022-08-20T00:23:10.492Z,72.87
2022-08-20T00:29:12.440Z,74.25
2022-08-20T00:35:16.756Z,80.32
2022-08-20T00:41:20.379Z,73.97
2022-08-20T00:47:21.921Z,74.30
2022-08-20T00:53:25.981Z,66.30
2022-08-20T00:59:28.391Z,74.78
2022-08-20T01:05:30.117Z,73.68
2022-08-20T01:11:36.964Z,69.63
2022-08-20T01:17:41.700Z,64.38
2022-08-20T01:23:46.366Z,63.27
2022-08-20T01:29:48.698Z,61.13
2022-08-20T01:35:51.761Z,66.72
2022-08-20T01:41:53.523Z,68.23
2022-08-20T01:47:55.140Z,64.82
2022-08-20T01:53:59.650Z,77.63
2022-08-20T02:00:02.002Z,59.53
2022-08-20T02:06:06.935Z,55.97
2022-08-20T02:12:09.707Z,56.57
2022-08-20T02:18:13.088Z,60.67
2022-08-20T02:24:15.051Z,56.47
2022-08-20T02:30:27.585Z,58.55
2022-08-20T02:36:29.651Z,54.50
2022-08-20T02:42:31.150Z,46.77
2022-08-20T02:48:33.640Z,61.08
2022-08-20T02:54:35.949Z,53.83
2022-08-20T03:00:38.454Z,56.65
2022-08-20T03:06:40.528Z,54.78
2022-08-20T03:12:42.269Z,63.50
2022-08-20T03:18:45.009Z,54.08
2022-08-20T03:24:46.496Z,57.87
2022-08-20T03:30:48.254Z,50.80
2022-08-20T03:36:49.706Z,46.13
2022-08-20T03:42:52.649Z,47.57
2022-08-20T03:49:00.388Z,53.10
2022-08-20T03:55:04.207Z,50.47
2022-08-20T04:01:06.633Z,53.75
2022-08-20T04:07:10.415Z,57.88
2022-08-20T04:13:12.098Z,61.20
2022-08-20T04:19:14.077Z,55.97
2022-08-20T04:25:15.961Z,61.13
2022-08-20T04:31:21.005Z,65.13
2022-08-20T04:37:26.000Z,67.72
2022-08-20T04:43:28.777Z,60.87
2022-08-20T04:49:30.251Z,56.25
2022-08-20T04:55:33.959Z,65.67
2022-08-20T05:01:35.487Z,59.58
2022-08-20T05:07:41.546Z,69.45
2022-08-20T05:13:43.031Z,69.60
2022-08-20T05:19:46.521Z,62.25
2022-08-20T05:25:51.483Z,76.53
2022-08-20T05:31:52.987Z,69.30
2022-08-20T05:37:54.880Z,66.45
2022-08-20T05:44:02.892Z,95.60
2022-08-20T05:50:05.397Z,72.97
2022-08-20T05:56:06.883Z,67.87
2022-08-20T06:02:28.332Z,80.50
2022-08-20T06:08:29.980Z,71.15
2022-08-20T06:14:32.530Z,87.50
2022-08-20T06:20:34.947Z,81.07
2022-08-20T06:26:37.022Z,68.90
2022-08-20T06:32:38.504Z,73.75
2022-08-20T06:38:40.132Z,62.50
2022-08-20T06:44:41.592Z,75.10
2022-08-20T06:50:47.646Z,59.65
2022-08-20T06:56:49.852Z,58.87
2022-08-20T07:02:51.321Z,45.95
2022-08-20T07:08:53.308Z,72.13
2022-08-20T07:14:55.126Z,66.80
2022-08-20T07:20:57.259Z,89.97
2022-08-20T07:26:58.976Z,79.50
2022-08-20T07:33:00.459Z,67.25
2022-08-20T07:39:05.976Z,65.15
2022-08-20T07:45:11.166Z,69.13
2022-08-20T07:51:13.807Z,61.33
2022-08-20T07:57:17.230Z,69.70
2022-08-20T08:03:19.168Z,65.95
2022-08-20T08:09:40.742Z,50.88
2022-08-20T08:15:46.214Z,65.30
2022-08-20T08:21:47.665Z,58.00
2022-08-20T08:27:49.230Z,51.40
2022-08-20T08:33:50.769Z,72.10
2022-08-20T08:39:52.256Z,60.67
2022-08-20T08:46:03.980Z,61.33
2022-08-20T08:52:14.628Z,75.78
2022-08-20T08:58:16.966Z,66.07
2022-08-20T09:04:21.963Z,65.35
2022-08-20T09:10:23.723Z,52.72
2022-08-20T09:16:25.944Z,60.50
2022-08-20T09:22:30.775Z,54.40
2022-08-20T09:28:35.109Z,83.37
2022-08-20T09:34:40.397Z,61.63
2022-08-20T09:40:42.048Z,65.38
2022-08-20T09:46:43.563Z,71.70
2022-08-20T09:52:47.218Z,63.33
2022-08-20T09:58:53.875Z,72.13
2022-08-20T10:04:55.452Z,70.30
2022-08-20T10:10:59.035Z,67.28
2022-08-20T10:17:01.610Z,62.37
2022-08-20T10:23:03.417Z,66.15
2022-08-20T10:29:04.914Z,58.43
2022-08-20T10:35:06.516Z,54.95
2022-08-20T10:41:08.169Z,67.90
2022-08-20T10:47:13.641Z,60.27
2022-08-20T10:53:15.106Z,80.88
2022-08-20T10:59:16.588Z,67.27
2022-08-20T11:05:18.189Z,78.50
2022-08-20T11:11:19.677Z,92.90
2022-08-20T11:17:23.007Z,79.30
2022-08-20T11:23:24.700Z,100.75
2022-08-20T11:29:26.184Z,64.50
2022-08-20T11:35:49.228Z,91.90
2022-08-20T11:41:55.249Z,77.75
2022-08-20T11:47:57.092Z,62.37
2022-08-20T11:54:02.241Z,78.05
2022-08-20T12:00:06.617Z,61.43
2022-08-20T12:06:10.453Z,53.33
2022-08-20T12:12:12.745Z,54.30
2022-08-20T12:18:15.940Z,48.57
2022-08-20T12:24:17.981Z,52.53
2022-08-20T12:30:21.095Z,51.93
2022-08-20T12:36:22.651Z,54.88
2022-08-20T12:42:24.622Z,46.53
2022-08-20T12:48:26.088Z,50.80
2022-08-20T12:54:27.595Z,51.70
2022-08-20T13:00:30.910Z,50.23
2022-08-20T13:06:33.375Z,48.58
2022-08-20T13:12:35.037Z,43.78
2022-08-20T13:18:36.499Z,42.50
2022-08-20T13:24:38.475Z,44.08
2022-08-20T13:30:41.301Z,41.63
2022-08-20T13:36:42.799Z,38.58
2022-08-20T13:42:44.552Z,33.50
2022-08-20T13:48:47.026Z,34.10
2022-08-20T13:54:48.523Z,40.35
2022-08-20T14:00:50.533Z,36.43
2022-08-20T14:06:52.029Z,40.97
2022-08-20T14:12:53.642Z,41.72
2022-08-20T14:18:56.594Z,41.50
2022-08-20T14:25:03.010Z,43.75
2022-08-20T14:31:07.422Z,34.73
2022-08-20T14:37:19.506Z,38.05
2022-08-20T14:43:21.053Z,41.58
2022-08-20T14:49:22.626Z,32.93
2022-08-20T14:55:25.770Z,37.72
2022-08-20T15:01:27.382Z,33.17
2022-08-20T15:07:30.479Z,39.42
2022-08-20T15:13:33.211Z,32.22
2022-08-20T15:19:35.759Z,37.23
2022-08-20T15:25:38.090Z,34.67
2022-08-20T15:31:39.908Z,33.33
2022-08-20T15:37:50.152Z,37.38
2022-08-20T15:43:51.629Z,36.50
2022-08-20T15:50:16.457Z,33.87
2022-08-20T15:56:25.383Z,42.50
2022-08-20T16:02:52.031Z,33.37
2022-08-20T16:09:06.600Z,33.40
2022-08-20T16:15:28.379Z,48.22
2022-08-20T16:21:31.821Z,188.30
2022-08-20T16:27:43.940Z,112.75
2022-08-20T16:33:50.356Z,122.67
2022-08-20T16:39:58.432Z,68.28
2022-08-20T16:46:12.592Z,84.65
2022-08-20T16:52:14.094Z,65.90
2022-08-20T16:58:16.248Z,120.45
2022-08-20T17:04:21.791Z,88.03
2022-08-20T17:10:27.216Z,86.03
2022-08-20T17:16:33.857Z,90.22
2022-08-20T17:22:39.904Z,84.33
2022-08-20T17:28:48.817Z,79.97
2022-08-20T17:34:51.915Z,64.80
2022-08-20T17:40:58.446Z,90.68
2022-08-20T17:47:02.370Z,110.35
2022-08-20T17:53:14.771Z,81.10
2022-08-20T18:00:01.136Z,103.60
2022-08-20T18:06:02.783Z,69.47
2022-08-20T18:12:27.868Z,100.22
2022-08-20T18:18:56.284Z,89.72
2022-08-20T18:25:17.151Z,112.97
2022-08-20T18:31:32.607Z,109.25
2022-08-20T18:37:35.054Z,98.50
2022-08-20T18:43:36.800Z,114.40
2022-08-20T18:49:39.371Z,89.68
2022-08-20T18:55:42.139Z,101.17
2022-08-20T19:01:45.921Z,109.45
2022-08-20T19:07:51.175Z,133.07
2022-08-20T19:14:19.917Z,136.68
2022-08-20T19:20:26.473Z,96.00
2022-08-20T19:26:30.715Z,111.07
2022-08-20T19:32:34.284Z,105.25
2022-08-20T19:38:42.310Z,146.90
2022-08-20T19:44:48.037Z,119.95
2022-08-20T19:50:52.218Z,193.32
2022-08-20T19:57:03.918Z,130.70
2022-08-20T20:03:14.040Z,119.38
2022-08-20T20:09:22.058Z,140.90
2022-08-20T20:15:23.907Z,141.32
2022-08-20T20:21:34.872Z,136.27
2022-08-20T20:27:36.929Z,127.20
2022-08-20T20:33:43.999Z,112.05
2022-08-20T20:39:45.920Z,121.43
2022-08-20T20:45:58.455Z,120.90
2022-08-20T20:52:05.846Z,100.68
2022-08-20T20:58:16.397Z,96.60
2022-08-20T21:04:21.600Z,112.03
2022-08-20T21:10:34.167Z,129.97
2022-08-20T21:16:35.827Z,109.30
2022-08-20T21:22:37.370Z,106.25
2022-08-20T21:28:38.915Z,105.73
2022-08-20T21:34:40.438Z,153.45
2022-08-20T21:40:41.963Z,114.77
2022-08-20T21:46:47.918Z,114.05
2022-08-20T21:52:55.313Z,123.38
2022-08-20T21:59:01.363Z,128.60
2022-08-20T22:05:02.949Z,118.43
2022-08-20T22:11:05.739Z,115.73
2022-08-20T22:17:07.219Z,130.98
2022-08-20T22:23:08.834Z,138.13
2022-08-20T22:29:11.133Z,117.33
2022-08-20T22:35:12.650Z,124.55
2022-08-20T22:41:15.427Z,118.37
2022-08-20T22:47:23.552Z,134.43
2022-08-20T22:53:26.076Z,118.78
2022-08-20T22:59:27.589Z,151.23
2022-08-20T23:05:30.213Z,129.82
2022-08-20T23:11:31.679Z,104.23
2022-08-20T23:17:33.921Z,87.90
2022-08-20T23:23:35.503Z,99.05
2022-08-20T23:29:37.031Z,88.87
2022-08-20T23:35:39.126Z,88.53
2022-08-20T23:41:47.750Z,104.30
2022-08-20T23:47:49.995Z,96.10
2022-08-20T23:53:51.563Z,89.78
2022-08-20T23:59:53.163Z,77.27
